»·PEaware :: N5002T KBUR-KSBA

N5002T :: KBUR-KSBA

FLIGHT INFORMATION

Flight Status: Arrived
Operator: Privately registered:
United States
More flights under this callsign
Pilot: Hunter M. (19355)
Aircraft: CESSNA 172 SKYHAWK
(C172)
More flights by this aircraft type
Origin: KBUR Bob Hope-Burbank
United States
Destination: KSBA Santa Barbara Mun
United States
More flights between these airports :: More routes between these airports
Route: +VNY3 FIM V186 DEANO V27 KWANG
File this flight plan on PilotEdge
Remarks:
Altitude:
(Current/Filed)
6,000ft
Speed:
(Current/Filed)
118kts
Departed: 15-Dec-18 01:25 PM
Arrived: 15-Dec-18 02:43 PM
Distance/Time
Traveled:
75nm/1:18
Distance/Time
To Go:
Arrived

Flight Plot

Page will automatically refresh every two minutes.


Map Options




Map Legend


Flown Route
Filed Route
Departure Airport
Arrival Airport
Navaid (VOR, NDB)
Fix

Horizontal Profiles

Position Reports

Time Latitude Longitude Heading Altitude Ground
Speed
15-Dec-18 12:52 34.195886 -118.366904 183 781ft 0kts
15-Dec-18 12:53 34.195886 -118.366904 183 781ft 0kts
15-Dec-18 12:54 34.195885 -118.366905 183 781ft 0kts
15-Dec-18 12:55 34.195884 -118.366905 183 781ft 0kts
15-Dec-18 12:56 34.195883 -118.366905 183 781ft 0kts
15-Dec-18 12:57 34.195882 -118.366905 183 781ft 0kts
15-Dec-18 12:58 34.195881 -118.366905 183 781ft 0kts
15-Dec-18 12:59 34.195880 -118.366905 183 781ft 0kts
15-Dec-18 13:00 34.195880 -118.366905 183 781ft 0kts
15-Dec-18 13:01 34.195879 -118.366905 183 781ft 0kts
15-Dec-18 13:02 34.195878 -118.366905 183 781ft 0kts
15-Dec-18 13:03 34.195877 -118.366905 183 781ft 0kts
15-Dec-18 13:04 34.195876 -118.366905 183 781ft 0kts
15-Dec-18 13:05 34.195876 -118.366905 183 781ft 0kts
15-Dec-18 13:06 34.195875 -118.366905 183 781ft 0kts
15-Dec-18 13:07 34.195874 -118.366905 183 781ft 0kts
15-Dec-18 13:08 34.195873 -118.366905 183 781ft 0kts
15-Dec-18 13:09 34.195872 -118.366905 183 781ft 0kts
15-Dec-18 13:10 34.195871 -118.366906 183 781ft 0kts
15-Dec-18 13:11 34.195871 -118.366906 183 781ft 0kts
15-Dec-18 13:12 34.195870 -118.366906 183 781ft 0kts
15-Dec-18 13:13 34.195869 -118.366906 183 781ft 0kts
15-Dec-18 13:14 34.195868 -118.366906 183 781ft 0kts
15-Dec-18 13:15 34.195851 -118.366632 68 781ft 7kts
15-Dec-18 13:16 34.196735 -118.366571 269 781ft 2kts
15-Dec-18 13:17 34.196729 -118.368367 270 781ft 5kts
15-Dec-18 13:18 34.197110 -118.369008 356 781ft 0kts
15-Dec-18 13:19 34.197111 -118.369008 356 781ft 0kts
15-Dec-18 13:20 34.197112 -118.369008 356 781ft 0kts
15-Dec-18 13:21 34.197112 -118.369008 356 781ft 0kts
15-Dec-18 13:22 34.197113 -118.369008 356 781ft 0kts
15-Dec-18 13:23 34.197113 -118.369008 356 781ft 0kts
15-Dec-18 13:24 34.197857 -118.364415 93 781ft 65kts
15-Dec-18 13:25 34.193249 -118.337064 168 1274ft 91kts
15-Dec-18 13:26 34.174782 -118.359018 225 2012ft 96kts
15-Dec-18 13:27 34.155948 -118.382471 226 2714ft 95kts
15-Dec-18 13:28 34.140585 -118.405427 287 3400ft 84kts
15-Dec-18 13:29 34.152760 -118.428584 301 4102ft 81kts
15-Dec-18 13:31 34.164220 -118.451987 300 4794ft 80kts
15-Dec-18 13:32 34.175170 -118.474632 300 5467ft 75kts
15-Dec-18 13:33 34.185657 -118.496362 300 6026ft 81kts
15-Dec-18 13:34 34.198706 -118.523134 300 6001ft 95kts
15-Dec-18 13:35 34.212006 -118.550653 300 6000ft 94kts
15-Dec-18 13:36 34.223414 -118.578603 272 6004ft 94kts
15-Dec-18 13:37 34.223292 -118.610712 273 6008ft 96kts
15-Dec-18 13:38 34.223279 -118.643041 273 6011ft 95kts
15-Dec-18 13:39 34.223255 -118.675314 273 6013ft 96kts
15-Dec-18 13:40 34.223212 -118.707712 273 6009ft 96kts
15-Dec-18 13:41 34.234398 -118.734297 314 6015ft 94kts
15-Dec-18 13:42 34.252987 -118.756560 314 6012ft 94kts
15-Dec-18 13:43 34.271583 -118.778895 314 6012ft 93kts
15-Dec-18 13:44 34.290128 -118.801183 314 6007ft 94kts
15-Dec-18 13:45 34.308779 -118.823640 314 6007ft 94kts
15-Dec-18 13:46 34.327447 -118.846124 315 5993ft 94kts
15-Dec-18 13:47 34.346054 -118.868559 314 5996ft 94kts
15-Dec-18 13:48 34.355714 -118.895793 268 6004ft 97kts
15-Dec-18 13:49 34.353251 -118.928392 268 6004ft 97kts
15-Dec-18 13:50 34.350848 -118.961384 269 6088ft 109kts
15-Dec-18 13:51 34.348094 -118.998731 268 5992ft 99kts
15-Dec-18 13:52 34.345653 -119.031455 268 6007ft 97kts
15-Dec-18 13:53 34.343233 -119.064128 268 6008ft 97kts
15-Dec-18 13:53 34.341219 -119.091244 268 6010ft 97kts
15-Dec-18 13:54 34.338789 -119.123883 268 6009ft 97kts
15-Dec-18 13:56 34.335945 -119.161924 268 6009ft 97kts
15-Dec-18 13:57 34.333489 -119.194635 268 6009ft 97kts
15-Dec-18 13:57 34.331438 -119.221879 268 6009ft 97kts
15-Dec-18 13:59 34.328571 -119.260055 268 6009ft 97kts
15-Dec-18 13:59 34.326509 -119.287278 268 6009ft 97kts
15-Dec-18 14:00 34.324022 -119.319959 268 6008ft 97kts
15-Dec-18 14:01 34.321528 -119.352607 268 6009ft 97kts
15-Dec-18 14:02 34.319019 -119.385347 268 6009ft 97kts
15-Dec-18 14:03 34.316505 -119.418029 268 6009ft 97kts
15-Dec-18 14:04 34.313989 -119.450707 268 6009ft 97kts
15-Dec-18 14:05 34.311977 -119.483429 270 6008ft 97kts
15-Dec-18 14:06 34.310278 -119.516160 270 6007ft 97kts
15-Dec-18 14:07 34.307341 -119.548979 267 6000ft 98kts
15-Dec-18 14:08 34.304127 -119.581856 267 6000ft 98kts
15-Dec-18 14:09 34.300973 -119.614713 267 6000ft 98kts
15-Dec-18 14:10 34.297881 -119.647517 267 6000ft 98kts
15-Dec-18 14:11 34.294823 -119.680431 268 6000ft 98kts
15-Dec-18 14:12 34.291821 -119.713288 268 6000ft 98kts
15-Dec-18 14:13 34.288874 -119.746140 268 6000ft 98kts
15-Dec-18 14:14 34.285970 -119.778975 268 6002ft 98kts
15-Dec-18 14:15 34.283113 -119.811857 268 6002ft 98kts
15-Dec-18 14:16 34.280309 -119.844823 268 6001ft 98kts
15-Dec-18 14:17 34.277568 -119.877718 268 6002ft 98kts
15-Dec-18 14:18 34.274872 -119.910631 268 5999ft 98kts
15-Dec-18 14:19 34.272242 -119.943317 269 5999ft 97kts
15-Dec-18 14:20 34.269665 -119.976045 269 6000ft 97kts
15-Dec-18 14:21 34.267111 -120.008583 268 6004ft 98kts
15-Dec-18 14:22 34.264516 -120.041489 269 6009ft 98kts
15-Dec-18 14:23 34.261979 -120.074385 269 6010ft 98kts
15-Dec-18 14:24 34.265578 -120.103248 358 5904ft 95kts
15-Dec-18 14:25 34.292499 -120.095821 9 5270ft 101kts
15-Dec-18 14:26 34.319121 -120.088131 9 4996ft 91kts
15-Dec-18 14:27 34.344246 -120.084337 359 4672ft 97kts
15-Dec-18 14:28 34.371201 -120.082700 0 4069ft 95kts
15-Dec-18 14:29 34.397277 -120.081008 0 3464ft 93kts
15-Dec-18 14:30 34.422934 -120.079265 0 2988ft 84kts
15-Dec-18 14:31 34.428045 -120.057432 109 3005ft 82kts
15-Dec-18 14:32 34.422937 -120.032160 86 2896ft 69kts
15-Dec-18 14:33 34.424972 -120.010551 81 2179ft 62kts
15-Dec-18 14:34 34.425051 -119.990507 84 2124ft 57kts
15-Dec-18 14:35 34.425477 -119.970683 92 2036ft 61kts
15-Dec-18 14:36 34.425257 -119.949423 88 1681ft 63kts
15-Dec-18 14:37 34.426297 -119.928653 91 1250ft 62kts
15-Dec-18 14:38 34.426874 -119.908306 96 913ft 57kts
15-Dec-18 14:39 34.426920 -119.888598 91 685ft 61kts
15-Dec-18 14:40 34.427112 -119.868774 90 317ft 53kts
15-Dec-18 14:41 34.427619 -119.850391 89 17ft 45kts
15-Dec-18 14:42 34.428275 -119.845722 60 13ft 0kts
15-Dec-18 14:43 34.428282 -119.845707 60 13ft 2kts
15-Dec-18 14:44 34.428938 -119.845802 329 13ft 0kts
15-Dec-18 14:45 34.428939 -119.845802 330 13ft 0kts
15-Dec-18 14:46 34.428939 -119.845802 330 13ft 0kts

Navigation Log

Ident Type
Flight plan parsing failed, navigation log unavailable